11 Max
7 km/h
5 Mini

LFMY 171400Z AUTO 05005KT 9999 SCT014 BKN020 BKN027 12/10 Q1021 TEMPO RA BKN010 BKN020 BECMG 32012KT

TAF LFMY 171400Z 1715/1815 10010KT 9999 SCT012 BKN020 BKN030 TEMPO 1715/1720 RA BKN010 PROB30 TEMPO 1715/1718 -TSRA BKN015CB BECMG 1718/1721 34017G27KT